createdAt,value
2023-02-22T00:02:11.165Z,8.13
2023-02-22T00:04:41.783Z,8.12
2023-02-22T00:07:09.118Z,8.11
2023-02-22T00:09:36.383Z,8.10
2023-02-22T00:12:03.791Z,8.09
2023-02-22T00:14:31.038Z,8.10
2023-02-22T00:16:59.984Z,8.09
2023-02-22T00:19:30.932Z,8.09
2023-02-22T00:21:58.449Z,8.07
2023-02-22T00:24:27.016Z,8.09
2023-02-22T00:26:55.914Z,8.06
2023-02-22T00:29:24.756Z,8.05
2023-02-22T00:31:52.316Z,8.05
2023-02-22T00:34:19.691Z,8.05
2023-02-22T00:36:50.872Z,8.03
2023-02-22T00:39:18.331Z,8.03
2023-02-22T00:41:45.858Z,8.03
2023-02-22T00:44:13.175Z,8.03
2023-02-22T00:46:40.507Z,8.01
2023-02-22T00:49:07.927Z,8.02
2023-02-22T00:51:35.317Z,7.99
2023-02-22T00:54:02.806Z,7.99
2023-02-22T00:56:30.332Z,7.98
2023-02-22T00:58:57.633Z,7.98
2023-02-22T01:01:25.006Z,7.98
2023-02-22T01:03:52.407Z,7.97
2023-02-22T01:06:20.569Z,7.97
2023-02-22T01:08:49.024Z,7.97
2023-02-22T01:11:18.404Z,7.96
2023-02-22T01:13:45.903Z,7.97
2023-02-22T01:16:13.317Z,7.97
2023-02-22T01:18:40.660Z,7.97
2023-02-22T01:21:08.618Z,7.97
2023-02-22T01:23:36.051Z,7.97
2023-02-22T01:26:06.175Z,7.97
2023-02-22T01:28:35.290Z,7.97
2023-02-22T01:31:03.428Z,7.98
2023-02-22T01:33:31.953Z,7.97
2023-02-22T01:36:00.246Z,7.96
2023-02-22T01:38:28.247Z,7.96
2023-02-22T01:40:55.693Z,7.96
2023-02-22T01:43:29.678Z,7.95
2023-02-22T01:46:00.836Z,7.94
2023-02-22T01:48:41.135Z,7.95
2023-02-22T01:51:19.680Z,7.94
2023-02-22T01:53:56.068Z,7.95
2023-02-22T01:56:26.663Z,7.94
2023-02-22T01:59:01.500Z,7.94
2023-02-22T02:01:30.112Z,7.94
2023-02-22T02:04:00.203Z,7.93
2023-02-22T02:06:31.468Z,7.93
2023-02-22T02:09:15.903Z,7.93
2023-02-22T02:11:44.253Z,7.92
2023-02-22T02:14:12.628Z,7.91
2023-02-22T02:16:44.988Z,7.89
2023-02-22T02:19:44.540Z,7.88
2023-02-22T02:22:21.177Z,7.88
2023-02-22T02:25:37.843Z,7.86
2023-02-22T02:28:42.973Z,7.83
2023-02-22T02:31:27.887Z,7.83
2023-02-22T02:33:58.087Z,7.82
2023-02-22T02:37:03.117Z,7.81
2023-02-22T02:39:53.006Z,7.81
2023-02-22T02:42:25.495Z,7.81
2023-02-22T02:45:05.089Z,7.81
2023-02-22T02:47:40.280Z,7.82
2023-02-22T02:50:23.339Z,7.81
2023-02-22T02:52:55.542Z,7.81
2023-02-22T02:55:25.052Z,7.81
2023-02-22T02:57:53.677Z,7.80
2023-02-22T03:00:26.537Z,7.79
2023-02-22T03:03:11.912Z,7.77
2023-02-22T03:05:39.446Z,7.78
2023-02-22T03:08:07.745Z,7.76
2023-02-22T03:11:01.758Z,7.78
2023-02-22T03:14:08.288Z,7.76
2023-02-22T03:16:50.412Z,7.75
2023-02-22T03:19:22.072Z,7.75
2023-02-22T03:22:14.079Z,7.76
2023-02-22T03:24:54.808Z,7.74
2023-02-22T03:27:29.546Z,7.75
2023-02-22T03:30:05.829Z,7.75
2023-02-22T03:32:39.893Z,7.74
2023-02-22T03:35:17.502Z,7.72
2023-02-22T03:37:48.040Z,7.72
2023-02-22T03:40:28.413Z,7.72
2023-02-22T03:43:03.784Z,7.72
2023-02-22T03:45:36.298Z,7.72
2023-02-22T03:48:20.651Z,7.72
2023-02-22T03:50:49.137Z,7.70
2023-02-22T03:53:19.134Z,7.70
2023-02-22T03:55:53.136Z,7.69
2023-02-22T03:58:24.399Z,7.69
2023-02-22T04:00:54.703Z,7.69
2023-02-22T04:03:23.661Z,7.68
2023-02-22T04:05:52.940Z,7.63
2023-02-22T04:08:20.709Z,7.63
2023-02-22T04:10:48.494Z,7.63
2023-02-22T04:13:18.556Z,7.61
2023-02-22T04:15:48.842Z,7.61
2023-02-22T04:18:16.710Z,7.61
2023-02-22T04:20:46.818Z,7.61
2023-02-22T04:23:22.708Z,7.61
2023-02-22T04:25:50.200Z,7.61
2023-02-22T04:28:18.882Z,7.63
2023-02-22T04:31:06.365Z,7.62
2023-02-22T04:33:34.065Z,7.61
2023-02-22T04:36:01.721Z,7.61
2023-02-22T04:38:32.494Z,7.60
2023-02-22T04:41:00.747Z,7.60
2023-02-22T04:43:29.660Z,7.59
2023-02-22T04:46:06.669Z,7.59
2023-02-22T04:48:34.007Z,7.59
2023-02-22T04:51:01.310Z,7.59
2023-02-22T04:53:30.925Z,7.59
2023-02-22T04:55:58.333Z,7.59
2023-02-22T04:58:25.626Z,7.59
2023-02-22T05:00:54.201Z,7.59
2023-02-22T05:03:21.557Z,7.58
2023-02-22T05:05:48.953Z,7.57
2023-02-22T05:08:16.277Z,7.57
2023-02-22T05:10:43.591Z,7.56
2023-02-22T05:13:10.822Z,7.55
2023-02-22T05:15:37.951Z,7.54
2023-02-22T05:18:05.494Z,7.53
2023-02-22T05:20:34.927Z,7.53
2023-02-22T05:23:03.072Z,7.52
2023-02-22T05:25:30.384Z,7.52
2023-02-22T05:28:00.535Z,7.51
2023-02-22T05:30:31.189Z,7.49
2023-02-22T05:32:59.421Z,7.48
2023-02-22T05:35:27.717Z,7.49
2023-02-22T05:37:55.855Z,7.50
2023-02-22T05:40:26.326Z,7.48
2023-02-22T05:42:54.521Z,7.47
2023-02-22T05:45:25.127Z,7.47
2023-02-22T05:47:56.117Z,7.45
2023-02-22T05:50:24.701Z,7.45
2023-02-22T05:52:53.417Z,7.45
2023-02-22T05:55:23.676Z,7.44
2023-02-22T05:57:52.463Z,7.44
2023-02-22T06:00:26.099Z,7.44
2023-02-22T06:03:04.996Z,7.44
2023-02-22T06:05:33.107Z,7.41
2023-02-22T06:08:02.742Z,7.40
2023-02-22T06:10:30.942Z,7.41
2023-02-22T06:12:59.076Z,7.40
2023-02-22T06:15:28.443Z,7.40
2023-02-22T06:17:56.972Z,7.39
2023-02-22T06:20:26.522Z,7.38
2023-02-22T06:22:55.909Z,7.38
2023-02-22T06:25:25.935Z,7.38
2023-02-22T06:27:53.379Z,7.38
2023-02-22T06:30:23.170Z,7.37
2023-02-22T06:32:51.013Z,7.35
2023-02-22T06:35:18.413Z,7.33
2023-02-22T06:37:45.927Z,7.33
2023-02-22T06:40:14.820Z,7.32
2023-02-22T06:42:42.145Z,7.32
2023-02-22T06:45:09.979Z,7.33
2023-02-22T06:47:41.500Z,7.33
2023-02-22T06:50:19.935Z,7.35
2023-02-22T06:52:48.102Z,7.36
2023-02-22T06:55:23.742Z,7.36
2023-02-22T06:57:51.813Z,7.36
2023-02-22T07:00:21.337Z,7.37
2023-02-22T07:02:48.976Z,7.36
2023-02-22T07:05:19.389Z,7.36
2023-02-22T07:07:48.590Z,7.38
2023-02-22T07:10:26.199Z,7.38
2023-02-22T07:12:54.014Z,7.37
2023-02-22T07:15:23.921Z,7.37
2023-02-22T07:20:40.325Z,7.42
2023-02-22T07:23:08.411Z,7.44
2023-02-22T07:25:35.813Z,7.44
2023-02-22T07:28:03.052Z,7.45
2023-02-22T07:30:34.825Z,7.46
2023-02-22T07:33:04.900Z,7.47
2023-02-22T07:35:43.844Z,7.51
2023-02-22T07:38:11.066Z,7.51
2023-02-22T07:40:40.283Z,7.55
2023-02-22T07:43:28.813Z,7.57
2023-02-22T07:45:59.044Z,7.61
2023-02-22T07:48:29.024Z,7.65
2023-02-22T07:50:56.964Z,7.67
2023-02-22T07:53:30.220Z,7.69
2023-02-22T07:55:58.552Z,7.67
2023-02-22T07:58:27.996Z,7.67
2023-02-22T08:00:56.453Z,7.68
2023-02-22T08:03:25.649Z,7.69
2023-02-22T08:05:55.772Z,7.68
2023-02-22T08:08:24.059Z,7.70
2023-02-22T08:10:52.418Z,7.72
2023-02-22T08:13:22.181Z,7.75
2023-02-22T08:15:52.474Z,7.78
2023-02-22T08:18:20.989Z,7.82
2023-02-22T08:20:50.018Z,7.84
2023-02-22T08:23:18.482Z,7.87
2023-02-22T08:25:45.860Z,7.89
2023-02-22T08:28:15.993Z,7.91
2023-02-22T08:30:43.975Z,7.92
2023-02-22T08:33:14.653Z,7.94
2023-02-22T08:35:41.981Z,7.92
2023-02-22T08:38:17.125Z,7.93
2023-02-22T08:40:44.883Z,7.95
2023-02-22T08:43:13.549Z,7.98
2023-02-22T08:45:41.475Z,8.01
2023-02-22T08:48:08.869Z,8.04
2023-02-22T08:50:36.361Z,8.09
2023-02-22T08:53:05.540Z,8.12
2023-02-22T08:55:37.543Z,8.13
2023-02-22T08:58:09.322Z,8.15
2023-02-22T09:00:39.049Z,8.18
2023-02-22T09:03:09.464Z,8.21
2023-02-22T09:05:36.792Z,8.24
2023-02-22T09:08:04.744Z,8.27
2023-02-22T09:10:35.041Z,8.31
2023-02-22T09:13:03.965Z,8.33
2023-02-22T09:15:32.534Z,8.35
2023-02-22T09:18:00.178Z,8.37
2023-02-22T09:20:29.378Z,8.39
2023-02-22T09:22:57.537Z,8.41
2023-02-22T09:25:25.221Z,8.42
2023-02-22T09:27:53.894Z,8.45
2023-02-22T09:30:33.463Z,8.47
2023-02-22T09:33:07.184Z,8.53
2023-02-22T09:35:36.684Z,8.57
2023-02-22T09:38:06.963Z,8.63
2023-02-22T09:40:45.156Z,8.66
2023-02-22T09:43:37.824Z,8.73
2023-02-22T09:46:56.231Z,8.77
2023-02-22T09:49:32.098Z,8.79
2023-02-22T09:52:08.392Z,8.80
2023-02-22T09:54:45.722Z,8.84
2023-02-22T09:57:23.037Z,8.92
2023-02-22T10:00:29.394Z,8.94
2023-02-22T10:03:19.442Z,8.96
2023-02-22T10:06:03.362Z,9.02
2023-02-22T10:08:33.724Z,9.10
2023-02-22T10:11:31.873Z,9.11
2023-02-22T10:14:05.622Z,9.17
2023-02-22T10:16:35.241Z,9.21
2023-02-22T10:19:33.677Z,9.24
2023-02-22T10:22:19.784Z,9.28
2023-02-22T10:25:14.831Z,9.30
2023-02-22T10:27:55.691Z,9.30
2023-02-22T10:30:34.249Z,9.30
2023-02-22T10:33:20.492Z,9.30
2023-02-22T10:35:51.352Z,9.29
2023-02-22T10:38:27.960Z,9.30
2023-02-22T10:40:58.526Z,9.31
2023-02-22T10:43:26.010Z,9.32
2023-02-22T10:45:57.864Z,9.29
2023-02-22T10:48:27.694Z,9.27
2023-02-22T10:51:02.205Z,9.26
2023-02-22T10:53:31.126Z,9.25
2023-02-22T10:56:05.765Z,9.23
2023-02-22T10:59:02.600Z,9.20
2023-02-22T11:01:33.059Z,9.21
2023-02-22T11:04:11.192Z,9.18
2023-02-22T11:06:41.176Z,9.17
2023-02-22T11:09:22.847Z,9.12
2023-02-22T11:12:07.793Z,9.10
2023-02-22T11:14:35.164Z,9.06
2023-02-22T11:17:08.307Z,9.05
2023-02-22T11:19:38.634Z,9.06
2023-02-22T11:22:05.980Z,9.08
2023-02-22T11:24:48.535Z,9.12
2023-02-22T11:27:27.104Z,9.17
2023-02-22T11:30:07.013Z,9.22
2023-02-22T11:32:43.488Z,9.29
2023-02-22T11:35:35.494Z,9.35
2023-02-22T11:38:23.074Z,9.39
2023-02-22T11:41:16.375Z,9.41
2023-02-22T11:43:47.447Z,9.45
2023-02-22T11:46:29.266Z,9.49
2023-02-22T11:49:12.039Z,9.54
2023-02-22T11:51:54.990Z,9.59
2023-02-22T11:54:31.588Z,9.62
2023-02-22T11:57:11.138Z,9.64
2023-02-22T11:59:41.832Z,9.70
2023-02-22T12:02:23.836Z,9.74
2023-02-22T12:05:29.764Z,9.82
2023-02-22T12:08:19.200Z,9.88
2023-02-22T12:11:06.465Z,9.94
2023-02-22T12:13:58.947Z,9.98
2023-02-22T12:16:32.507Z,10.01
2023-02-22T12:19:22.234Z,9.98
2023-02-22T12:21:58.219Z,9.92
2023-02-22T12:24:34.628Z,9.88
2023-02-22T12:27:12.173Z,9.86
2023-02-22T12:29:44.721Z,9.84
2023-02-22T12:32:21.147Z,9.82
2023-02-22T12:35:14.361Z,9.80
2023-02-22T12:38:01.912Z,9.78
2023-02-22T12:41:01.581Z,9.71
2023-02-22T12:43:51.959Z,9.68
2023-02-22T12:46:53.469Z,9.64
2023-02-22T12:49:42.558Z,9.60
2023-02-22T12:52:32.082Z,9.55
2023-02-22T12:55:07.295Z,9.53
2023-02-22T12:58:07.850Z,9.52
2023-02-22T13:00:54.137Z,9.50
2023-02-22T13:03:36.288Z,9.51
2023-02-22T13:06:40.765Z,9.50
2023-02-22T13:09:14.340Z,9.50
2023-02-22T13:12:14.003Z,9.50
2023-02-22T13:14:56.826Z,9.53
2023-02-22T13:17:46.099Z,9.59
2023-02-22T13:20:41.314Z,9.62
2023-02-22T13:23:17.484Z,9.59
2023-02-22T13:26:19.716Z,9.55
2023-02-22T13:29:10.089Z,9.55
2023-02-22T13:31:49.860Z,9.53
2023-02-22T13:34:33.406Z,9.54
2023-02-22T13:37:25.554Z,9.54
2023-02-22T13:40:14.653Z,9.54
2023-02-22T13:43:06.514Z,9.51
2023-02-22T13:45:55.253Z,9.47
2023-02-22T13:48:41.807Z,9.45
2023-02-22T13:51:23.601Z,9.40
2023-02-22T13:54:07.992Z,9.34
2023-02-22T13:56:35.453Z,9.31
2023-02-22T13:59:04.829Z,9.31
2023-02-22T14:01:45.866Z,9.34
2023-02-22T14:04:40.603Z,9.32
2023-02-22T14:07:24.103Z,9.33
2023-02-22T14:09:52.666Z,9.35
2023-02-22T14:12:29.305Z,9.36
2023-02-22T14:15:28.656Z,9.41
2023-02-22T14:17:57.460Z,9.41
2023-02-22T14:20:32.632Z,9.42
2023-02-22T14:23:49.420Z,9.49
2023-02-22T14:26:32.310Z,9.54
2023-02-22T14:29:02.934Z,9.59
2023-02-22T14:32:13.183Z,9.63
2023-02-22T14:34:45.385Z,9.63
2023-02-22T14:37:12.747Z,9.65
2023-02-22T14:39:45.957Z,9.66
2023-02-22T14:42:23.252Z,9.64
2023-02-22T14:45:17.287Z,9.61
2023-02-22T14:48:13.850Z,9.62
2023-02-22T14:50:41.256Z,9.60
2023-02-22T14:53:11.565Z,9.60
2023-02-22T14:55:53.443Z,9.55
2023-02-22T14:58:25.919Z,9.51
2023-02-22T15:00:56.805Z,9.50
2023-02-22T15:03:38.782Z,9.47
2023-02-22T15:06:15.259Z,9.44
2023-02-22T15:08:48.957Z,9.41
2023-02-22T15:11:21.463Z,9.38
2023-02-22T15:13:55.045Z,9.34
2023-02-22T15:16:25.219Z,9.29
2023-02-22T15:18:54.875Z,9.25
2023-02-22T15:21:26.178Z,9.21
2023-02-22T15:24:03.353Z,9.17
2023-02-22T15:26:49.067Z,9.13
2023-02-22T15:29:26.074Z,9.10
2023-02-22T15:31:56.479Z,9.06
2023-02-22T15:34:33.203Z,9.04
2023-02-22T15:37:20.251Z,9.02
2023-02-22T15:39:47.639Z,8.98
2023-02-22T15:42:21.748Z,8.93
2023-02-22T15:44:54.857Z,8.90
2023-02-22T15:47:29.545Z,8.89
2023-02-22T15:50:33.337Z,8.87
2023-02-22T15:53:05.050Z,8.84
2023-02-22T15:55:36.805Z,8.83
2023-02-22T15:58:12.526Z,8.83
2023-02-22T16:00:43.121Z,8.83
2023-02-22T16:03:16.948Z,8.82
2023-02-22T16:05:48.041Z,8.84
2023-02-22T16:08:26.838Z,8.84
2023-02-22T16:11:15.146Z,8.83
2023-02-22T16:14:42.752Z,8.81
2023-02-22T16:17:28.977Z,8.79
2023-02-22T16:20:00.906Z,8.77
2023-02-22T16:22:34.906Z,8.75
2023-02-22T16:25:21.671Z,8.73
2023-02-22T16:27:50.842Z,8.70
2023-02-22T16:30:24.420Z,8.67
2023-02-22T16:32:55.041Z,8.65
2023-02-22T16:35:29.504Z,8.62
2023-02-22T16:38:02.892Z,8.58
2023-02-22T16:40:44.913Z,8.54
2023-02-22T16:43:15.127Z,8.51
2023-02-22T16:45:43.026Z,8.50
2023-02-22T16:48:24.027Z,8.48
2023-02-22T16:50:54.953Z,8.47
2023-02-22T16:53:25.227Z,8.47
2023-02-22T16:55:58.023Z,8.44
2023-02-22T16:58:28.164Z,8.43
2023-02-22T17:00:57.759Z,8.44
2023-02-22T17:03:26.135Z,8.41
2023-02-22T17:05:53.888Z,8.41
2023-02-22T17:08:21.389Z,8.39
2023-02-22T17:10:51.637Z,8.40
2023-02-22T17:13:25.718Z,8.39
2023-02-22T17:15:59.337Z,8.37
2023-02-22T17:18:34.727Z,8.36
2023-02-22T17:21:03.642Z,8.35
2023-02-22T17:23:31.083Z,8.34
2023-02-22T17:26:02.292Z,8.32
2023-02-22T17:28:30.715Z,8.30
2023-02-22T17:31:01.457Z,8.28
2023-02-22T17:33:32.968Z,8.27
2023-02-22T17:36:02.080Z,8.25
2023-02-22T17:38:30.564Z,8.22
2023-02-22T17:40:59.449Z,8.20
2023-02-22T17:43:30.691Z,8.17
2023-02-22T17:45:58.019Z,8.16
2023-02-22T17:48:26.048Z,8.13
2023-02-22T17:50:53.852Z,8.11
2023-02-22T17:53:21.819Z,8.11
2023-02-22T17:55:49.902Z,8.10
2023-02-22T17:58:17.886Z,8.07
2023-02-22T18:00:49.450Z,8.06
2023-02-22T18:03:25.494Z,8.05
2023-02-22T18:05:57.836Z,8.05
2023-02-22T18:08:27.361Z,8.04
2023-02-22T18:10:56.796Z,8.03
2023-02-22T18:13:26.614Z,8.03
2023-02-22T18:16:03.435Z,8.02
2023-02-22T18:18:31.462Z,8.02
2023-02-22T18:21:01.855Z,8.03
2023-02-22T18:23:31.282Z,8.03
2023-02-22T18:26:10.770Z,8.02
2023-02-22T18:28:39.703Z,8.01
2023-02-22T18:31:15.772Z,8.00
2023-02-22T18:33:44.979Z,8.00
2023-02-22T18:36:13.327Z,7.99
2023-02-22T18:38:45.130Z,7.99
2023-02-22T18:41:15.633Z,7.98
2023-02-22T18:43:43.666Z,7.98
2023-02-22T18:46:14.448Z,7.98
2023-02-22T18:48:42.329Z,7.97
2023-02-22T18:51:12.770Z,7.96
2023-02-22T18:53:41.396Z,7.96
2023-02-22T18:56:12.077Z,7.95
2023-02-22T18:58:39.530Z,7.92
2023-02-22T19:01:07.820Z,7.89
2023-02-22T19:03:38.702Z,7.89
2023-02-22T19:06:11.464Z,7.87
2023-02-22T19:08:42.744Z,7.87
2023-02-22T19:11:17.735Z,7.87
2023-02-22T19:13:46.930Z,7.87
2023-02-22T19:16:20.310Z,7.86
2023-02-22T19:18:54.835Z,7.85
2023-02-22T19:21:22.876Z,7.84
2023-02-22T19:23:50.900Z,7.84
2023-02-22T19:26:24.250Z,7.84
2023-02-22T19:28:54.206Z,7.83
2023-02-22T19:31:31.822Z,7.83
2023-02-22T19:34:01.946Z,7.83
2023-02-22T19:36:30.214Z,7.83
2023-02-22T19:39:02.137Z,7.83
2023-02-22T19:41:30.122Z,7.81
2023-02-22T19:43:57.826Z,7.79
2023-02-22T19:46:26.438Z,7.78
2023-02-22T19:48:57.578Z,7.77
2023-02-22T19:51:35.061Z,7.78
2023-02-22T19:54:04.916Z,7.78
2023-02-22T19:56:35.240Z,7.78
2023-02-22T19:59:13.485Z,7.79
2023-02-22T20:01:44.318Z,7.76
2023-02-22T20:04:23.402Z,7.78
2023-02-22T20:06:54.810Z,7.78
2023-02-22T20:09:29.788Z,7.78
2023-02-22T20:11:57.704Z,7.76
2023-02-22T20:14:28.995Z,7.76
2023-02-22T20:16:58.132Z,7.75
2023-02-22T20:19:26.882Z,7.76
2023-02-22T20:21:56.307Z,7.78
2023-02-22T20:24:24.998Z,7.79
2023-02-22T20:26:55.997Z,7.78
2023-02-22T20:29:29.946Z,7.79
2023-02-22T20:31:59.455Z,7.78
2023-02-22T20:34:31.317Z,7.77
2023-02-22T20:36:59.301Z,7.76
2023-02-22T20:39:28.351Z,7.75
2023-02-22T20:41:56.285Z,7.71
2023-02-22T20:44:23.537Z,7.72
2023-02-22T20:46:51.137Z,7.71
2023-02-22T20:49:19.912Z,7.72
2023-02-22T20:51:48.377Z,7.72
2023-02-22T20:54:17.753Z,7.72
2023-02-22T20:56:53.137Z,7.71
2023-02-22T20:59:21.494Z,7.71
2023-02-22T21:01:51.395Z,7.71
2023-02-22T21:04:19.160Z,7.71
2023-02-22T21:06:47.256Z,7.71
2023-02-22T21:09:17.753Z,7.69
2023-02-22T21:11:46.484Z,7.69
2023-02-22T21:14:18.872Z,7.67
2023-02-22T21:16:49.274Z,7.67
2023-02-22T21:19:26.866Z,7.65
2023-02-22T21:22:01.631Z,7.64
2023-02-22T21:24:29.904Z,7.63
2023-02-22T21:26:59.046Z,7.63
2023-02-22T21:29:28.626Z,7.60
2023-02-22T21:31:57.069Z,7.60
2023-02-22T21:34:26.125Z,7.59
2023-02-22T21:36:54.501Z,7.55
2023-02-22T21:39:22.985Z,7.54
2023-02-22T21:41:52.137Z,7.52
2023-02-22T21:44:19.979Z,7.51
2023-02-22T21:46:50.690Z,7.47
2023-02-22T21:49:18.501Z,7.41
2023-02-22T21:51:45.918Z,7.39
2023-02-22T21:54:13.883Z,7.37
2023-02-22T21:56:43.280Z,7.35
2023-02-22T21:59:19.048Z,7.32
2023-02-22T22:02:04.675Z,7.30
2023-02-22T22:04:32.857Z,7.28
2023-02-22T22:07:01.958Z,7.24
2023-02-22T22:09:33.363Z,7.22
2023-02-22T22:12:05.265Z,7.20
2023-02-22T22:14:34.557Z,7.17
2023-02-22T22:17:05.733Z,7.14
2023-02-22T22:19:40.643Z,7.10
2023-02-22T22:22:08.819Z,7.06
2023-02-22T22:24:36.757Z,7.04
2023-02-22T22:27:10.101Z,7.01
2023-02-22T22:29:37.448Z,6.98
2023-02-22T22:32:06.169Z,6.98
2023-02-22T22:34:34.554Z,6.95
2023-02-22T22:37:01.873Z,6.93
2023-02-22T22:39:29.715Z,6.89
2023-02-22T22:41:57.180Z,6.85
2023-02-22T22:44:24.605Z,6.84
2023-02-22T22:46:55.012Z,6.80
2023-02-22T22:49:25.386Z,6.79
2023-02-22T22:51:53.666Z,6.78
2023-02-22T22:54:21.013Z,6.78
2023-02-22T22:56:48.788Z,6.77
2023-02-22T22:59:16.216Z,6.75
2023-02-22T23:01:46.679Z,6.75
2023-02-22T23:04:16.658Z,6.73
2023-02-22T23:06:52.530Z,6.71
2023-02-22T23:09:22.248Z,6.69
2023-02-22T23:11:53.651Z,6.69
2023-02-22T23:14:26.862Z,6.66
2023-02-22T23:17:03.269Z,6.67
2023-02-22T23:19:35.846Z,6.64
2023-02-22T23:22:05.535Z,6.64
2023-02-22T23:24:37.858Z,6.63
2023-02-22T23:27:07.628Z,6.64
2023-02-22T23:29:41.909Z,6.63
2023-02-22T23:32:09.603Z,6.62
2023-02-22T23:34:41.403Z,6.61
2023-02-22T23:37:10.724Z,6.62
2023-02-22T23:39:38.770Z,6.59
2023-02-22T23:42:08.881Z,6.55
2023-02-22T23:44:36.564Z,6.54
2023-02-22T23:47:05.468Z,6.54
2023-02-22T23:49:38.157Z,6.53
2023-02-22T23:52:07.255Z,6.54
2023-02-22T23:54:40.292Z,6.54
2023-02-22T23:57:08.931Z,6.52
2023-02-22T23:59:40.497Z,6.53
